EGJBEGNX

Guest
Details From EGJB - Guernsey
To EGNX - East Midlands
Flight Number -
Tags generated
Created
Modified
Stats Distance 217 nm / 401 km
Max Altitude 23,500 ft / 7,163 m
Waypoints 4
Social Downloads 2
Likes 0
Share VATSIM

Download

Looking for another format? Having issues loading an existing format? Contact us
Advertisement - Login to hide

Notes

Basic altitude profile: - Ascent Rate: 2500ft/min - Ascent Speed: 250kts - Cruise Altitude: 20000ft - Cruise Speed: 420kts - Descent Rate: 1500ft/min - Descent Speed: 250kts

Route

EGJB SAM UR41 PEPIS EGNX

ID Type Via Altitude Latitude Longitude Leg Dist Tot Dist Heading (true) Name
O EGJB APT - 0 ft / 0 m 49.43495˚ -2.60197˚ - 0 nm - Guernsey
SAM VOR - 19,000 ft / 5,791 m 50.95528˚ -1.34500˚ 103 nm 103 nm 27° / 28° SOUTHAMPTON VOR-DME
PEPIS FIX UR41 (AWY-HI) 23,500 ft / 7,163 m 51.19667˚ -1.24361˚ 14 nm 118 nm 15° / 15° -
O EGNX APT - 0 ft / 0 m 52.83100˚ -1.32815˚ 98 nm 216 nm 358° / 358° East Midlands

Altitude Profile

Advertisement - Login to hide

Weather


0- 5 10 15 20 25 30 35+ Temperature / ° C

Clouds and Precipitation
Forecast for 2018-05-20 12:00 UTC. Updated an hour ago

Ground ~20,000 ft ~40,000 ft Winds

EGJB

Details ICAO EGJB (GCI)
Name Guernsey
Region United Kingdom
Timezone Europe/Guernsey (UTC+1.0)
Stats Elevation 336 ft / 102 m (AMSL)
Location 49.434955° -2.601970°
Runways 1
Magnetic Variation 1.005° W

METAR

EGJB 201220Z 06007KT 020V090 9999 FEW007 15/11 Q1021

Decode

TAF

Not found

Departure Runways

ID Width Length Bearing (true) Bearing (mag) Surface Threshold Offset Overrun Length
09 148 ft / 45 m 4,753 ft / 1,449 m 87.56° 88.57° Asphalt 0 ft / 0 m 0 ft / 0 m
27 148 ft / 45 m 4,753 ft / 1,449 m 267.57° 268.58° Asphalt 0 ft / 0 m 272 ft / 83 m

EGNX

Details ICAO EGNX (EMA)
Name East Midlands
Region United Kingdom
Timezone Europe/London (UTC+1.0)
Stats Elevation 306 ft / 93 m (AMSL)
Location 52.830999° -1.328155°
Runways 1
Magnetic Variation 0.968° W

METAR

EGNX 201220Z VRB08KT 9999 FEW048 21/08 Q1021

Decode

TAF

TAF EGNX 201055Z 2012/2112 16005KT 9999 FEW045 PROB30 2103/2108 5000 BR BKN005

Decode

Destination Runways

ID Width Length Bearing (true) Bearing (mag) Surface Threshold Offset Overrun Length
09 151 ft / 46 m 9,462 ft / 2,884 m 88.25° 89.22° Asphalt 587 ft / 179 m 92 ft / 28 m
27 151 ft / 46 m 9,462 ft / 2,884 m 268.29° 269.26° Asphalt 423 ft / 129 m 98 ft / 30 m

Approach Navaids

Runway Type Ident Frequency Range Bearing (true) Bearing (mag) Slope Elevation
09 Localiser IEMW 109.35 MHz 18 nm / 33 km 88.30° 89.27° - 306 ft / 93 m (AMSL)
09 Glidescope IEMW 109.35 MHz 10 nm / 19 km 88.27° 89.24° 3.00° 306 ft / 93 m (AMSL)
09 DME IEMW 109.35 MHz 18 nm / 33 km - - - 322 ft / 98 m (AMSL)
27 Localiser IEME 109.35 MHz 18 nm / 33 km 268.25° 269.21° - 306 ft / 93 m (AMSL)
27 Glidescope IEME 109.35 MHz 10 nm / 19 km 268.27° 269.24° 3.00° 306 ft / 93 m (AMSL)
27 DME IEME 109.35 MHz 18 nm / 33 km - - - 322 ft / 98 m (AMSL)

Popular Alternatives